sensor_id;sensor_type;location;lat;lon;timestamp;pressure;altitude;pressure_sealevel;temperature;humidity
1832;BME280;1680;48.106;11.708;2023-05-08T00:01:38;95725.72;;;15.85;100.00
1832;BME280;1680;48.106;11.708;2023-05-08T00:04:05;95730.94;;;15.80;100.00
1832;BME280;1680;48.106;11.708;2023-05-08T00:06:34;95732.19;;;15.72;100.00
1832;BME280;1680;48.106;11.708;2023-05-08T00:09:01;95734.84;;;15.72;100.00
1832;BME280;1680;48.106;11.708;2023-05-08T00:11:29;95740.94;;;15.73;100.00
1832;BME280;1680;48.106;11.708;2023-05-08T00:13:56;95739.81;;;15.69;100.00
1832;BME280;1680;48.106;11.708;2023-05-08T00:16:23;95736.91;;;15.70;100.00
1832;BME280;1680;48.106;11.708;2023-05-08T00:18:50;95739.00;;;15.68;100.00
1832;BME280;1680;48.106;11.708;2023-05-08T00:21:18;95744.50;;;15.62;100.00
1832;BME280;1680;48.106;11.708;2023-05-08T00:23:47;95751.19;;;15.69;100.00
1832;BME280;1680;48.106;11.708;2023-05-08T00:26:14;95751.44;;;15.68;100.00
1832;BME280;1680;48.106;11.708;2023-05-08T00:28:41;95751.19;;;15.69;100.00
1832;BME280;1680;48.106;11.708;2023-05-08T00:31:09;95753.34;;;15.72;100.00
1832;BME280;1680;48.106;11.708;2023-05-08T00:33:36;95753.28;;;15.67;100.00
1832;BME280;1680;48.106;11.708;2023-05-08T00:36:04;95754.88;;;15.68;100.00
1832;BME280;1680;48.106;11.708;2023-05-08T00:38:32;95755.41;;;15.65;100.00
1832;BME280;1680;48.106;11.708;2023-05-08T00:41:01;95752.06;;;15.53;100.00
1832;BME280;1680;48.106;11.708;2023-05-08T00:43:28;95751.88;;;15.60;100.00
1832;BME280;1680;48.106;11.708;2023-05-08T00:45:59;95727.50;;;15.32;100.00
1832;BME280;1680;48.106;11.708;2023-05-08T00:48:28;95744.50;;;15.62;100.00
1832;BME280;1680;48.106;11.708;2023-05-08T00:50:57;95742.78;;;15.51;100.00
1832;BME280;1680;48.106;11.708;2023-05-08T00:53:25;95745.44;;;15.51;100.00
1832;BME280;1680;48.106;11.708;2023-05-08T00:55:53;95743.91;;;15.55;100.00
1832;BME280;1680;48.106;11.708;2023-05-08T00:58:24;95735.06;;;15.45;100.00
1832;BME280;1680;48.106;11.708;2023-05-08T01:00:54;95737.13;;;15.43;100.00
1832;BME280;1680;48.106;11.708;2023-05-08T01:03:22;95745.56;;;15.40;100.00
1832;BME280;1680;48.106;11.708;2023-05-08T01:05:50;95746.66;;;15.44;100.00
1832;BME280;1680;48.106;11.708;2023-05-08T01:08:17;95745.56;;;15.40;100.00
1832;BME280;1680;48.106;11.708;2023-05-08T01:10:53;95754.03;;;15.42;100.00
1832;BME280;1680;48.106;11.708;2023-05-08T01:13:29;95749.00;;;15.40;100.00
1832;BME280;1680;48.106;11.708;2023-05-08T01:16:08;95756.63;;;15.37;100.00
1832;BME280;1680;48.106;11.708;2023-05-08T01:18:43;95742.31;;;15.16;100.00
1832;BME280;1680;48.106;11.708;2023-05-08T01:21:16;95755.19;;;15.29;100.00
1832;BME280;1680;48.106;11.708;2023-05-08T01:24:18;95758.34;;;15.26;100.00
1832;BME280;1680;48.106;11.708;2023-05-08T01:27:03;95764.69;;;15.25;100.00
1832;BME280;1680;48.106;11.708;2023-05-08T01:30:01;95761.94;;;15.20;100.00
1832;BME280;1680;48.106;11.708;2023-05-08T01:32:38;95759.03;;;15.22;100.00
1832;BME280;1680;48.106;11.708;2023-05-08T01:35:12;95760.81;;;15.16;100.00
1832;BME280;1680;48.106;11.708;2023-05-08T01:37:49;95711.44;;;14.79;100.00
1832;BME280;1680;48.106;11.708;2023-05-08T01:40:23;95765.31;;;15.16;100.00
1832;BME280;1680;48.106;11.708;2023-05-08T01:42:57;95768.88;;;15.05;100.00
1832;BME280;1680;48.106;11.708;2023-05-08T01:45:31;95766.47;;;15.03;100.00
1832;BME280;1680;48.106;11.708;2023-05-08T01:48:04;95774.22;;;15.10;100.00
1832;BME280;1680;48.106;11.708;2023-05-08T01:50:39;95771.91;;;14.97;100.00
1832;BME280;1680;48.106;11.708;2023-05-08T01:53:13;95782.97;;;14.94;100.00
1832;BME280;1680;48.106;11.708;2023-05-08T01:55:43;95780.28;;;14.89;100.00
1832;BME280;1680;48.106;11.708;2023-05-08T01:58:13;95779.16;;;14.85;100.00
1832;BME280;1680;48.106;11.708;2023-05-08T02:00:42;95782.66;;;14.90;100.00
1832;BME280;1680;48.106;11.708;2023-05-08T02:03:13;95784.72;;;14.88;100.00
1832;BME280;1680;48.106;11.708;2023-05-08T02:05:43;95782.00;;;14.83;100.00
1832;BME280;1680;48.106;11.708;2023-05-08T02:08:12;95783.94;;;14.88;100.00
1832;BME280;1680;48.106;11.708;2023-05-08T02:10:41;95782.66;;;14.90;100.00
1832;BME280;1680;48.106;11.708;2023-05-08T02:13:09;95773.38;;;14.88;100.00
1832;BME280;1680;48.106;11.708;2023-05-08T02:15:37;95795.59;;;14.92;100.00
1832;BME280;1680;48.106;11.708;2023-05-08T02:18:07;95789.44;;;14.86;100.00
1832;BME280;1680;48.106;11.708;2023-05-08T02:20:37;95796.13;;;14.89;100.00
1832;BME280;1680;48.106;11.708;2023-05-08T02:23:05;95802.19;;;14.89;100.00
1832;BME280;1680;48.106;11.708;2023-05-08T02:25:34;95796.28;;;14.82;100.00
1832;BME280;1680;48.106;11.708;2023-05-08T02:28:02;95799.63;;;14.78;100.00
1832;BME280;1680;48.106;11.708;2023-05-08T02:30:30;95793.22;;;14.90;100.00
1832;BME280;1680;48.106;11.708;2023-05-08T02:32:59;95798.50;;;14.90;100.00
1832;BME280;1680;48.106;11.708;2023-05-08T02:35:28;95793.38;;;14.84;100.00
1832;BME280;1680;48.106;11.708;2023-05-08T02:37:59;95767.81;;;14.68;100.00
1832;BME280;1680;48.106;11.708;2023-05-08T02:40:28;95787.06;;;14.85;100.00
1832;BME280;1680;48.106;11.708;2023-05-08T02:42:56;95790.50;;;14.85;100.00
1832;BME280;1680;48.106;11.708;2023-05-08T02:45:28;95796.81;;;14.84;100.00
1832;BME280;1680;48.106;11.708;2023-05-08T02:48:05;95788.91;;;14.84;100.00
1832;BME280;1680;48.106;11.708;2023-05-08T02:50:37;95803.94;;;14.84;100.00
1832;BME280;1680;48.106;11.708;2023-05-08T02:53:11;95805.94;;;14.77;100.00
1832;BME280;1680;48.106;11.708;2023-05-08T02:55:46;95789.09;;;14.61;100.00
1832;BME280;1680;48.106;11.708;2023-05-08T02:58:18;95793.53;;;14.61;100.00
1832;BME280;1680;48.106;11.708;2023-05-08T03:00:48;95798.81;;;14.61;100.00
1832;BME280;1680;48.106;11.708;2023-05-08T03:03:21;95794.53;;;14.55;100.00
1832;BME280;1680;48.106;11.708;2023-05-08T03:05:53;95802.53;;;14.60;100.00
1832;BME280;1680;48.106;11.708;2023-05-08T03:08:25;95786.03;;;14.53;100.00
1832;BME280;1680;48.106;11.708;2023-05-08T03:10:56;95810.38;;;14.55;100.00
1832;BME280;1680;48.106;11.708;2023-05-08T03:13:25;95807.31;;;14.63;100.00
1832;BME280;1680;48.106;11.708;2023-05-08T03:15:55;95813.09;;;14.60;100.00
1832;BME280;1680;48.106;11.708;2023-05-08T03:18:26;95809.88;;;14.58;100.00
1832;BME280;1680;48.106;11.708;2023-05-08T03:20:57;95803.97;;;14.51;100.00
1832;BME280;1680;48.106;11.708;2023-05-08T03:23:28;95801.63;;;14.54;100.00
1832;BME280;1680;48.106;11.708;2023-05-08T03:25:57;95801.88;;;14.53;100.00
1832;BME280;1680;48.106;11.708;2023-05-08T03:28:26;95806.69;;;14.56;100.00
1832;BME280;1680;48.106;11.708;2023-05-08T03:30:54;95810.84;;;14.52;100.00
1832;BME280;1680;48.106;11.708;2023-05-08T03:33:23;95809.31;;;14.56;100.00
1832;BME280;1680;48.106;11.708;2023-05-08T03:35:52;95820.50;;;14.63;100.00
1832;BME280;1680;48.106;11.708;2023-05-08T03:38:20;95812.78;;;14.73;100.00
1832;BME280;1680;48.106;11.708;2023-05-08T03:40:49;95799.81;;;14.55;100.00
1832;BME280;1680;48.106;11.708;2023-05-08T03:43:17;95815.16;;;14.58;100.00
1832;BME280;1680;48.106;11.708;2023-05-08T03:45:46;95826.66;;;14.52;100.00
1832;BME280;1680;48.106;11.708;2023-05-08T03:48:14;95819.69;;;14.46;100.00
1832;BME280;1680;48.106;11.708;2023-05-08T03:50:42;95813.88;;;14.44;100.00
1832;BME280;1680;48.106;11.708;2023-05-08T03:53:10;95831.78;;;14.42;100.00
1832;BME280;1680;48.106;11.708;2023-05-08T03:55:37;95825.84;;;14.35;100.00
1832;BME280;1680;48.106;11.708;2023-05-08T03:58:15;95819.16;;;14.44;100.00
1832;BME280;1680;48.106;11.708;2023-05-08T04:00:53;95832.16;;;14.34;100.00
1832;BME280;1680;48.106;11.708;2023-05-08T04:03:30;95828.44;;;14.47;100.00
1832;BME280;1680;48.106;11.708;2023-05-08T04:06:00;95830.50;;;14.45;100.00
1832;BME280;1680;48.106;11.708;2023-05-08T04:08:31;95839.78;;;14.47;100.00
1832;BME280;1680;48.106;11.708;2023-05-08T04:11:06;95834.91;;;14.55;100.00
1832;BME280;1680;48.106;11.708;2023-05-08T04:13:42;95831.78;;;14.42;100.00
1832;BME280;1680;48.106;11.708;2023-05-08T04:16:15;95837.38;;;14.46;100.00
1832;BME280;1680;48.106;11.708;2023-05-08T04:18:45;95831.13;;;14.35;100.00
1832;BME280;1680;48.106;11.708;2023-05-08T04:21:18;95832.88;;;14.30;100.00
1832;BME280;1680;48.106;11.708;2023-05-08T04:23:49;95848.00;;;14.34;100.00
1832;BME280;1680;48.106;11.708;2023-05-08T04:26:16;95852.53;;;14.22;100.00
1832;BME280;1680;48.106;11.708;2023-05-08T04:28:46;95853.56;;;14.21;100.00
1832;BME280;1680;48.106;11.708;2023-05-08T04:31:14;95845.03;;;14.14;100.00
1832;BME280;1680;48.106;11.708;2023-05-08T04:33:43;95854.13;;;14.23;100.00
1832;BME280;1680;48.106;11.708;2023-05-08T04:36:11;95855.63;;;14.19;100.00
1832;BME280;1680;48.106;11.708;2023-05-08T04:38:38;95854.38;;;14.22;100.00
1832;BME280;1680;48.106;11.708;2023-05-08T04:41:05;95859.66;;;14.22;100.00
1832;BME280;1680;48.106;11.708;2023-05-08T04:43:33;95866.94;;;14.31;100.00
1832;BME280;1680;48.106;11.708;2023-05-08T04:46:02;95863.09;;;14.22;100.00
1832;BME280;1680;48.106;11.708;2023-05-08T04:48:31;95850.78;;;14.00;100.00
1832;BME280;1680;48.106;11.708;2023-05-08T04:50:58;95858.53;;;14.06;100.00
1832;BME280;1680;48.106;11.708;2023-05-08T04:53:25;95868.38;;;14.11;100.00
1832;BME280;1680;48.106;11.708;2023-05-08T04:55:53;95868.50;;;14.16;100.00
1832;BME280;1680;48.106;11.708;2023-05-08T04:58:21;95866.44;;;14.18;100.00
1832;BME280;1680;48.106;11.708;2023-05-08T05:00:48;95865.97;;;14.09;100.00
1832;BME280;1680;48.106;11.708;2023-05-08T05:03:17;95877.09;;;14.23;100.00
1832;BME280;1680;48.106;11.708;2023-05-08T05:05:44;95879.72;;;14.23;100.00
1832;BME280;1680;48.106;11.708;2023-05-08T05:08:11;95880.34;;;14.13;100.00
1832;BME280;1680;48.106;11.708;2023-05-08T05:10:38;95874.09;;;14.19;100.00
1832;BME280;1680;48.106;11.708;2023-05-08T05:13:05;95882.13;;;14.24;100.00
1832;BME280;1680;48.106;11.708;2023-05-08T05:15:33;95886.94;;;14.27;100.00
1832;BME280;1680;48.106;11.708;2023-05-08T05:18:00;95885.97;;;14.33;100.00
1832;BME280;1680;48.106;11.708;2023-05-08T05:20:28;95882.41;;;14.39;99.56
1832;BME280;1680;48.106;11.708;2023-05-08T05:22:55;95888.59;;;14.33;99.18
1832;BME280;1680;48.106;11.708;2023-05-08T05:25:23;95900.03;;;14.22;99.63
1832;BME280;1680;48.106;11.708;2023-05-08T05:27:50;95901.31;;;14.20;100.00
1832;BME280;1680;48.106;11.708;2023-05-08T05:30:17;95897.84;;;14.47;98.75
1832;BME280;1680;48.106;11.708;2023-05-08T05:32:44;95890.78;;;14.36;99.24
1832;BME280;1680;48.106;11.708;2023-05-08T05:35:12;95901.34;;;14.36;98.20
1832;BME280;1680;48.106;11.708;2023-05-08T05:37:40;95905.41;;;14.27;98.78
1832;BME280;1680;48.106;11.708;2023-05-08T05:40:08;95894.28;;;14.25;99.14
1832;BME280;1680;48.106;11.708;2023-05-08T05:42:37;95908.97;;;14.21;98.67
1832;BME280;1680;48.106;11.708;2023-05-08T05:45:05;95911.59;;;14.21;97.28
1832;BME280;1680;48.106;11.708;2023-05-08T05:47:33;95904.94;;;14.30;96.84
1832;BME280;1680;48.106;11.708;2023-05-08T05:50:00;95912.88;;;14.47;94.26
1832;BME280;1680;48.106;11.708;2023-05-08T05:52:27;95912.72;;;14.53;100.00
1832;BME280;1680;48.106;11.708;2023-05-08T05:54:56;95911.09;;;14.80;95.01
1832;BME280;1680;48.106;11.708;2023-05-08T05:57:23;95912.78;;;14.86;91.82
1832;BME280;1680;48.106;11.708;2023-05-08T05:59:50;95912.38;;;14.77;91.41
1832;BME280;1680;48.106;11.708;2023-05-08T06:02:18;95922.53;;;14.69;91.91
1832;BME280;1680;48.106;11.708;2023-05-08T06:04:45;95915.50;;;14.74;90.50
1832;BME280;1680;48.106;11.708;2023-05-08T06:07:14;95927.22;;;14.51;93.01
1832;BME280;1680;48.106;11.708;2023-05-08T06:09:45;95917.53;;;14.56;92.69
1832;BME280;1680;48.106;11.708;2023-05-08T06:12:13;95918.81;;;14.53;93.97
1832;BME280;1680;48.106;11.708;2023-05-08T06:14:42;95914.66;;;14.57;95.74
1832;BME280;1680;48.106;11.708;2023-05-08T06:17:09;95922.81;;;14.56;94.96
1832;BME280;1680;48.106;11.708;2023-05-08T06:19:36;95910.44;;;14.29;96.25
1832;BME280;1680;48.106;11.708;2023-05-08T06:22:03;95925.16;;;14.53;96.65
1832;BME280;1680;48.106;11.708;2023-05-08T06:24:31;95920.94;;;14.40;96.05
1832;BME280;1680;48.106;11.708;2023-05-08T06:27:00;95921.38;;;14.65;96.60
1832;BME280;1680;48.106;11.708;2023-05-08T06:29:29;95928.53;;;14.81;96.66
1832;BME280;1680;48.106;11.708;2023-05-08T06:31:56;95922.94;;;14.94;96.17
1832;BME280;1680;48.106;11.708;2023-05-08T06:34:23;95933.13;;;15.02;94.13
1832;BME280;1680;48.106;11.708;2023-05-08T06:36:50;95932.31;;;15.01;92.59
1832;BME280;1680;48.106;11.708;2023-05-08T06:39:18;95932.09;;;15.03;92.69
1832;BME280;1680;48.106;11.708;2023-05-08T06:41:46;95938.06;;;14.98;92.14
1832;BME280;1680;48.106;11.708;2023-05-08T06:44:13;95933.75;;;15.09;90.56
1832;BME280;1680;48.106;11.708;2023-05-08T06:46:42;95939.59;;;15.11;90.92
1832;BME280;1680;48.106;11.708;2023-05-08T06:49:09;95934.22;;;15.06;91.50
1832;BME280;1680;48.106;11.708;2023-05-08T06:51:36;95933.28;;;15.12;89.41
1832;BME280;1680;48.106;11.708;2023-05-08T06:54:04;95940.81;;;15.20;89.75
1832;BME280;1680;48.106;11.708;2023-05-08T06:56:32;95904.94;;;15.07;90.25
1832;BME280;1680;48.106;11.708;2023-05-08T06:58:59;95941.00;;;15.30;90.33
1832;BME280;1680;48.106;11.708;2023-05-08T07:01:26;95943.72;;;15.35;88.29
1832;BME280;1680;48.106;11.708;2023-05-08T07:03:55;95955.81;;;15.31;87.95
1832;BME280;1680;48.106;11.708;2023-05-08T07:06:22;95943.31;;;15.43;88.12
1832;BME280;1680;48.106;11.708;2023-05-08T07:08:50;95915.50;;;15.24;82.90
1832;BME280;1680;48.106;11.708;2023-05-08T07:11:17;95952.84;;;15.44;86.33
1832;BME280;1680;48.106;11.708;2023-05-08T07:13:44;95944.66;;;15.61;84.21
1832;BME280;1680;48.106;11.708;2023-05-08T07:16:13;95956.56;;;15.80;83.19
1832;BME280;1680;48.106;11.708;2023-05-08T07:18:40;95947.50;;;15.76;82.40
1832;BME280;1680;48.106;11.708;2023-05-08T07:21:09;95954.13;;;15.95;81.60
1832;BME280;1680;48.106;11.708;2023-05-08T07:23:36;95949.72;;;15.84;80.71
1832;BME280;1680;48.106;11.708;2023-05-08T07:26:03;95943.34;;;15.80;79.94
1832;BME280;1680;48.106;11.708;2023-05-08T07:28:32;95946.94;;;15.74;82.57
1832;BME280;1680;48.106;11.708;2023-05-08T07:31:03;95949.72;;;15.84;80.97
1832;BME280;1680;48.106;11.708;2023-05-08T07:33:31;95953.91;;;15.80;81.46
1832;BME280;1680;48.106;11.708;2023-05-08T07:35:59;95944.59;;;15.78;81.31
1832;BME280;1680;48.106;11.708;2023-05-08T07:38:27;95951.47;;;15.95;80.27
1832;BME280;1680;48.106;11.708;2023-05-08T07:40:54;95953.50;;;16.10;80.04
1832;BME280;1680;48.106;11.708;2023-05-08T07:43:25;95949.44;;;16.24;79.49
1832;BME280;1680;48.106;11.708;2023-05-08T07:45:53;95962.28;;;16.32;77.06
1832;BME280;1680;48.106;11.708;2023-05-08T07:48:20;95960.09;;;16.29;78.32
1832;BME280;1680;48.106;11.708;2023-05-08T07:50:48;95931.03;;;16.12;78.49
1832;BME280;1680;48.106;11.708;2023-05-08T07:53:15;95967.09;;;16.61;76.21
1832;BME280;1680;48.106;11.708;2023-05-08T07:55:44;95957.28;;;16.35;77.51
1832;BME280;1680;48.106;11.708;2023-05-08T07:58:11;95959.81;;;16.73;75.31
1832;BME280;1680;48.106;11.708;2023-05-08T08:00:39;95949.22;;;16.73;76.54
1832;BME280;1680;48.106;11.708;2023-05-08T08:03:06;95958.72;;;16.95;75.52
1832;BME280;1680;48.106;11.708;2023-05-08T08:05:33;95951.44;;;17.12;75.38
1832;BME280;1680;48.106;11.708;2023-05-08T08:08:00;95953.34;;;17.17;75.36
1832;BME280;1680;48.106;11.708;2023-05-08T08:10:27;95946.97;;;17.13;73.85
1832;BME280;1680;48.106;11.708;2023-05-08T08:12:57;95955.31;;;17.00;72.32
1832;BME280;1680;48.106;11.708;2023-05-08T08:15:26;95931.84;;;17.13;72.04
1832;BME280;1680;48.106;11.708;2023-05-08T08:17:53;95945.56;;;17.37;70.94
1832;BME280;1680;48.106;11.708;2023-05-08T08:20:20;95959.22;;;17.50;71.35
1832;BME280;1680;48.106;11.708;2023-05-08T08:22:47;95957.69;;;17.28;71.59
1832;BME280;1680;48.106;11.708;2023-05-08T08:25:15;95961.53;;;17.42;72.52
1832;BME280;1680;48.106;11.708;2023-05-08T08:27:42;95959.44;;;17.44;70.66
1832;BME280;1680;48.106;11.708;2023-05-08T08:30:11;95966.63;;;17.48;71.40
1832;BME280;1680;48.106;11.708;2023-05-08T08:32:38;95968.59;;;17.31;72.66
1832;BME280;1680;48.106;11.708;2023-05-08T08:35:06;95951.75;;;17.47;72.36
1832;BME280;1680;48.106;11.708;2023-05-08T08:37:33;95950.00;;;17.62;71.85
1832;BME280;1680;48.106;11.708;2023-05-08T08:40:00;95962.22;;;17.63;70.23
1832;BME280;1680;48.106;11.708;2023-05-08T08:42:27;95960.78;;;17.20;71.57
1832;BME280;1680;48.106;11.708;2023-05-08T08:44:55;95955.19;;;17.16;71.55
1832;BME280;1680;48.106;11.708;2023-05-08T08:47:27;95959.25;;;17.24;71.48
1832;BME280;1680;48.106;11.708;2023-05-08T08:49:57;95962.59;;;17.41;70.09
1832;BME280;1680;48.106;11.708;2023-05-08T08:52:34;95961.81;;;17.14;72.03
1832;BME280;1680;48.106;11.708;2023-05-08T08:55:06;95956.19;;;17.37;71.01
1832;BME280;1680;48.106;11.708;2023-05-08T08:57:38;95960.38;;;17.33;71.40
1832;BME280;1680;48.106;11.708;2023-05-08T09:00:10;95965.81;;;17.48;72.08
1832;BME280;1680;48.106;11.708;2023-05-08T09:02:39;95959.59;;;17.68;71.44
1832;BME280;1680;48.106;11.708;2023-05-08T09:05:07;95954.34;;;17.78;69.77
1832;BME280;1680;48.106;11.708;2023-05-08T09:07:36;95960.28;;;17.49;71.52
1832;BME280;1680;48.106;11.708;2023-05-08T09:10:06;95910.03;;;16.75;73.00
1832;BME280;1680;48.106;11.708;2023-05-08T09:12:33;95929.75;;;17.15;72.76
1832;BME280;1680;48.106;11.708;2023-05-08T09:15:01;95960.16;;;17.39;72.69
1832;BME280;1680;48.106;11.708;2023-05-08T09:17:28;95963.88;;;17.38;73.10
1832;BME280;1680;48.106;11.708;2023-05-08T09:19:56;95963.41;;;17.46;73.03
1832;BME280;1680;48.106;11.708;2023-05-08T09:22:25;95953.19;;;17.64;71.85
1832;BME280;1680;48.106;11.708;2023-05-08T09:24:56;95952.75;;;17.77;71.71
1832;BME280;1680;48.106;11.708;2023-05-08T09:27:25;95943.28;;;17.86;70.69
1832;BME280;1680;48.106;11.708;2023-05-08T09:30:03;95953.09;;;17.91;69.96
1832;BME280;1680;48.106;11.708;2023-05-08T09:32:32;95954.47;;;17.98;70.36
1832;BME280;1680;48.106;11.708;2023-05-08T09:35:02;95957.81;;;17.84;70.23
1832;BME280;1680;48.106;11.708;2023-05-08T09:37:30;95965.13;;;18.03;70.51
1832;BME280;1680;48.106;11.708;2023-05-08T09:40:16;95962.69;;;18.48;67.73
1832;BME280;1680;48.106;11.708;2023-05-08T09:42:45;95955.84;;;18.72;70.93
1832;BME280;1680;48.106;11.708;2023-05-08T09:45:25;95958.53;;;18.82;68.41
1832;BME280;1680;48.106;11.708;2023-05-08T09:47:53;95957.50;;;18.93;67.50
1832;BME280;1680;48.106;11.708;2023-05-08T09:50:22;95963.88;;;18.87;66.33
1832;BME280;1680;48.106;11.708;2023-05-08T09:52:49;95967.53;;;18.66;66.86
1832;BME280;1680;48.106;11.708;2023-05-08T09:55:17;95962.81;;;18.93;67.41
1832;BME280;1680;48.106;11.708;2023-05-08T09:57:52;95955.34;;;18.85;65.03
1832;BME280;1680;48.106;11.708;2023-05-08T10:00:24;95937.00;;;18.68;66.02
1832;BME280;1680;48.106;11.708;2023-05-08T10:02:57;95964.41;;;18.99;65.77
1832;BME280;1680;48.106;11.708;2023-05-08T10:05:27;95963.34;;;18.80;66.69
1832;BME280;1680;48.106;11.708;2023-05-08T10:07:56;95969.97;;;18.92;65.12
1832;BME280;1680;48.106;11.708;2023-05-08T10:10:24;95968.34;;;18.76;64.66
1832;BME280;1680;48.106;11.708;2023-05-08T10:12:53;95963.03;;;18.76;66.01
1832;BME280;1680;48.106;11.708;2023-05-08T10:15:22;95965.97;;;18.85;66.43
1832;BME280;1680;48.106;11.708;2023-05-08T10:17:53;95971.31;;;19.00;65.12
1832;BME280;1680;48.106;11.708;2023-05-08T10:20:25;95971.81;;;18.72;66.03
1832;BME280;1680;48.106;11.708;2023-05-08T10:22:56;95962.25;;;18.76;66.75
1832;BME280;1680;48.106;11.708;2023-05-08T10:25:24;95960.66;;;18.80;65.35
1832;BME280;1680;48.106;11.708;2023-05-08T10:27:54;95954.56;;;18.89;65.36
1832;BME280;1680;48.106;11.708;2023-05-08T10:30:24;95958.59;;;19.12;65.98
1832;BME280;1680;48.106;11.708;2023-05-08T10:32:52;95959.94;;;19.24;63.09
1832;BME280;1680;48.106;11.708;2023-05-08T10:35:20;95959.16;;;19.34;63.50
1832;BME280;1680;48.106;11.708;2023-05-08T10:37:49;95912.81;;;18.75;64.76
1832;BME280;1680;48.106;11.708;2023-05-08T10:40:19;95957.84;;;19.16;64.89
1832;BME280;1680;48.106;11.708;2023-05-08T10:42:46;95957.56;;;19.43;63.74
1832;BME280;1680;48.106;11.708;2023-05-08T10:45:13;95956.50;;;19.39;65.72
1832;BME280;1680;48.106;11.708;2023-05-08T10:47:50;95955.97;;;19.52;66.02
1832;BME280;1680;48.106;11.708;2023-05-08T10:50:41;95956.22;;;19.60;64.98
1832;BME280;1680;48.106;11.708;2023-05-08T10:53:18;95938.13;;;19.72;62.13
1832;BME280;1680;48.106;11.708;2023-05-08T10:55:49;95951.69;;;19.55;64.02
1832;BME280;1680;48.106;11.708;2023-05-08T10:58:28;95953.28;;;19.66;64.00
1832;BME280;1680;48.106;11.708;2023-05-08T11:01:15;95951.16;;;19.63;61.85
1832;BME280;1680;48.106;11.708;2023-05-08T11:03:44;95938.94;;;19.33;62.91
1832;BME280;1680;48.106;11.708;2023-05-08T11:06:12;95947.69;;;19.68;62.82
1832;BME280;1680;48.106;11.708;2023-05-08T11:08:45;95948.53;;;19.53;64.36
1832;BME280;1680;48.106;11.708;2023-05-08T11:11:19;95946.38;;;19.41;63.60
1832;BME280;1680;48.106;11.708;2023-05-08T11:13:51;95943.63;;;18.81;66.35
1832;BME280;1680;48.106;11.708;2023-05-08T11:19:22;95946.91;;;19.43;68.63
1832;BME280;1680;48.106;11.708;2023-05-08T11:22:22;95942.13;;;19.20;66.18
1832;BME280;1680;48.106;11.708;2023-05-08T11:24:56;95941.28;;;18.94;66.14
1832;BME280;1680;48.106;11.708;2023-05-08T11:27:31;95951.66;;;19.06;66.97
1832;BME280;1680;48.106;11.708;2023-05-08T11:30:21;95940.00;;;19.12;65.64
1832;BME280;1680;48.106;11.708;2023-05-08T11:33:15;95938.13;;;19.02;66.31
1832;BME280;1680;48.106;11.708;2023-05-08T11:35:50;95941.28;;;19.09;65.85
1832;BME280;1680;48.106;11.708;2023-05-08T12:03:17;95935.63;;;18.66;65.83
1832;BME280;1680;48.106;11.708;2023-05-08T12:05:45;95894.97;;;18.60;66.76
1832;BME280;1680;48.106;11.708;2023-05-08T12:08:13;95934.91;;;19.05;67.26
1832;BME280;1680;48.106;11.708;2023-05-08T12:10:48;95944.25;;;19.62;65.62
1832;BME280;1680;48.106;11.708;2023-05-08T12:13:17;95930.72;;;19.29;64.13
1832;BME280;1680;48.106;11.708;2023-05-08T12:15:45;95929.06;;;19.73;62.72
1832;BME280;1680;48.106;11.708;2023-05-08T12:18:12;95941.56;;;19.57;62.84
1832;BME280;1680;48.106;11.708;2023-05-08T12:20:45;95942.66;;;19.47;63.61
1832;BME280;1680;48.106;11.708;2023-05-08T12:23:16;95898.50;;;19.41;65.39
1832;BME280;1680;48.106;11.708;2023-05-08T12:25:44;95940.47;;;19.88;62.40
1832;BME280;1680;48.106;11.708;2023-05-08T12:28:11;95948.47;;;19.83;61.95
1832;BME280;1680;48.106;11.708;2023-05-08T12:30:38;95939.94;;;19.86;61.44
1832;BME280;1680;48.106;11.708;2023-05-08T12:33:06;95943.13;;;20.08;60.81
1832;BME280;1680;48.106;11.708;2023-05-08T12:35:33;95947.91;;;20.06;59.87
1832;BME280;1680;48.106;11.708;2023-05-08T12:38:02;95937.81;;;19.88;61.44
1832;BME280;1680;48.106;11.708;2023-05-08T12:40:33;95936.72;;;20.09;61.66
1832;BME280;1680;48.106;11.708;2023-05-08T12:43:02;95929.25;;;20.06;60.50
1832;BME280;1680;48.106;11.708;2023-05-08T12:45:32;95936.19;;;20.02;60.24
1832;BME280;1680;48.106;11.708;2023-05-08T12:48:02;95934.34;;;20.03;61.26
1832;BME280;1680;48.106;11.708;2023-05-08T12:50:33;95883.81;;;19.73;60.86
1832;BME280;1680;48.106;11.708;2023-05-08T12:53:03;95929.75;;;20.23;61.02
1832;BME280;1680;48.106;11.708;2023-05-08T12:55:32;95929.22;;;20.16;61.80
1832;BME280;1680;48.106;11.708;2023-05-08T12:58:02;95929.09;;;20.46;60.94
1832;BME280;1680;48.106;11.708;2023-05-08T13:00:37;95928.22;;;20.65;62.13
1832;BME280;1680;48.106;11.708;2023-05-08T13:03:05;95922.31;;;20.68;60.44
1832;BME280;1680;48.106;11.708;2023-05-08T13:05:34;95919.94;;;20.67;58.35
1832;BME280;1680;48.106;11.708;2023-05-08T13:08:04;95925.44;;;20.85;58.61
1832;BME280;1680;48.106;11.708;2023-05-08T13:10:46;95924.75;;;20.65;59.25
1832;BME280;1680;48.106;11.708;2023-05-08T13:13:15;95919.41;;;20.70;59.46
1832;BME280;1680;48.106;11.708;2023-05-08T13:15:45;95927.38;;;20.70;59.87
1832;BME280;1680;48.106;11.708;2023-05-08T13:18:13;95909.06;;;20.53;58.76
1832;BME280;1680;48.106;11.708;2023-05-08T13:20:41;95922.75;;;20.37;59.61
1832;BME280;1680;48.106;11.708;2023-05-08T13:23:10;95928.53;;;20.54;58.90
1832;BME280;1680;48.106;11.708;2023-05-08T13:25:37;95920.44;;;20.79;59.97
1832;BME280;1680;48.106;11.708;2023-05-08T13:28:06;95920.31;;;20.46;60.19
1832;BME280;1680;48.106;11.708;2023-05-08T13:30:33;95909.38;;;20.47;59.29
1832;BME280;1680;48.106;11.708;2023-05-08T13:33:01;95921.84;;;20.56;60.62
1832;BME280;1680;48.106;11.708;2023-05-08T13:35:28;95917.38;;;20.47;60.95
1832;BME280;1680;48.106;11.708;2023-05-08T13:37:58;95922.81;;;20.17;61.22
1832;BME280;1680;48.106;11.708;2023-05-08T13:40:27;95914.31;;;20.15;58.79
1832;BME280;1680;48.106;11.708;2023-05-08T13:42:55;95904.75;;;20.14;60.52
1832;BME280;1680;48.106;11.708;2023-05-08T13:45:22;95914.88;;;20.12;60.32
1832;BME280;1680;48.106;11.708;2023-05-08T13:47:50;95915.41;;;20.04;60.76
1832;BME280;1680;48.106;11.708;2023-05-08T13:50:17;95907.66;;;20.13;60.07